Time;durP1;ratioP1;P1;durP2;ratioP2;P2;SDS_P1;SDS_P2;PMS_P1;PMS_P2;Temp;Humidity;BMP_temperature;BMP_pressure;BME280_temperature;BME280_humidity;BME280_pressure;Samples;Min_cycle;Max_cycle;Signal;HPM_P1;HPM_P2
2023/12/13 06:00:56;;;;;;;1.67;0.50;;;9.20;85.90;;;;;;4638175;23;20420;-79
2023/12/13 06:02:58;;;;;;;3.60;0.50;;;9.30;85.90;;;;;;4101384;28;20039;-78
2023/12/13 06:05:00;;;;;;;2.97;0.70;;;9.20;85.90;;;;;;4101416;29;20086;-78
2023/12/13 06:07:02;;;;;;;2.05;0.50;;;9.20;86.10;;;;;;4101706;28;20055;-78
2023/12/13 06:09:05;;;;;;;4.22;0.60;;;9.20;86.40;;;;;;4101865;29;20051;-79
2023/12/13 06:11:07;;;;;;;4.07;0.60;;;9.20;85.70;;;;;;4101615;29;20051;-78
2023/12/13 06:13:08;;;;;;;2.60;0.60;;;9.20;85.70;;;;;;4101759;29;20489;-78
2023/12/13 06:15:11;;;;;;;2.72;0.80;;;9.20;86.00;;;;;;4101833;28;20548;-77
2023/12/13 06:17:14;;;;;;;2.63;0.50;;;9.20;86.40;;;;;;4101596;28;20596;-78
2023/12/13 06:19:15;;;;;;;2.75;0.63;;;9.20;85.70;;;;;;4101333;28;20055;-78
2023/12/13 06:21:17;;;;;;;2.63;0.60;;;9.20;85.80;;;;;;4101632;29;20468;-79
2023/12/13 06:23:18;;;;;;;3.38;0.60;;;9.20;85.70;;;;;;4101199;29;20058;-79
2023/12/13 06:25:19;;;;;;;4.38;0.80;;;9.20;85.80;;;;;;4101412;29;20058;-77
2023/12/13 06:27:21;;;;;;;3.92;0.63;;;9.20;86.10;;;;;;4101871;29;20370;-77
2023/12/13 06:29:23;;;;;;;4.07;0.80;;;9.20;85.90;;;;;;4101781;29;20063;-78
2023/12/13 06:31:25;;;;;;;1.80;0.50;;;9.20;85.70;;;;;;4101549;29;20488;-78
2023/12/13 06:33:29;;;;;;;2.90;0.70;;;9.20;85.60;;;;;;4100805;28;20129;-79
2023/12/13 06:35:31;;;;;;;3.15;0.60;;;9.20;85.70;;;;;;4101749;28;20043;-79
2023/12/13 06:37:33;;;;;;;3.15;0.70;;;9.20;86.30;;;;;;4101975;29;20051;-79
2023/12/13 06:39:34;;;;;;;2.22;0.40;;;9.10;87.20;;;;;;4101321;28;20485;-78
2023/12/13 06:41:37;;;;;;;4.20;1.10;;;9.00;87.10;;;;;;4101134;28;20063;-78
2023/12/13 06:43:39;;;;;;;3.83;1.30;;;8.90;88.00;;;;;;4101045;28;20489;-78
2023/12/13 06:45:41;;;;;;;3.15;0.95;;;8.70;88.80;;;;;;4100879;29;20059;-79
2023/12/13 06:47:43;;;;;;;2.80;1.00;;;8.60;88.90;;;;;;4101131;29;20055;-78
2023/12/13 06:49:45;;;;;;;10.63;4.47;;;8.70;88.90;;;;;;4101068;28;20051;-79
2023/12/13 06:51:47;;;;;;;16.35;7.20;;;8.80;89.00;;;;;;4100964;28;20083;-79
2023/12/13 06:53:49;;;;;;;5.72;2.20;;;8.80;88.70;;;;;;4101188;28;20629;-78
2023/12/13 06:55:51;;;;;;;4.00;1.80;;;8.80;88.80;;;;;;4101029;29;20051;-79
2023/12/13 06:57:53;;;;;;;4.63;1.70;;;8.80;89.10;;;;;;4100680;28;20390;-80
2023/12/13 06:59:55;;;;;;;4.18;1.20;;;8.80;89.00;;;;;;4098957;28;20457;-80
2023/12/13 07:01:57;;;;;;;4.38;1.55;;;8.70;89.30;;;;;;4100617;28;20066;-80
2023/12/13 07:04:01;;;;;;;4.60;1.17;;;8.70;89.40;;;;;;4100397;29;20055;-79
2023/12/13 07:06:05;;;;;;;4.57;1.35;;;8.70;89.70;;;;;;4100680;29;20525;-79
2023/12/13 07:08:08;;;;;;;5.05;1.40;;;8.70;89.60;;;;;;4101387;28;20122;-81
2023/12/13 07:10:10;;;;;;;4.15;1.17;;;8.80;89.70;;;;;;4101562;28;20055;-78
2023/12/13 07:12:12;;;;;;;2.95;1.33;;;8.80;89.50;;;;;;4101458;28;20055;-79
2023/12/13 07:14:14;;;;;;;4.25;1.52;;;8.80;89.70;;;;;;4103023;28;20051;-78
2023/12/13 07:16:16;;;;;;;3.75;1.20;;;8.90;89.30;;;;;;4103240;29;20090;-79
2023/12/13 07:18:21;;;;;;;9.50;3.85;;;8.90;89.80;;;;;;4101034;28;20465;-80
2023/12/13 07:20:23;;;;;;;5.10;1.77;;;8.90;89.20;;;;;;4100605;29;20068;-78
2023/12/13 07:22:26;;;;;;;5.97;1.23;;;8.90;89.10;;;;;;4100996;29;20397;-81
2023/12/13 07:24:28;;;;;;;6.43;1.60;;;8.90;89.20;;;;;;4102300;29;20053;-78
2023/12/13 07:26:30;;;;;;;3.47;0.80;;;8.90;89.30;;;;;;4100762;28;20051;-78
2023/12/13 07:28:32;;;;;;;4.50;1.63;;;8.90;89.50;;;;;;4100530;28;20047;-77
2023/12/13 07:30:34;;;;;;;3.42;0.82;;;8.90;89.40;;;;;;4100364;28;20062;-78
2023/12/13 07:32:37;;;;;;;5.82;1.45;;;8.90;89.40;;;;;;4100956;28;20054;-78
2023/12/13 07:34:41;;;;;;;5.10;1.10;;;8.90;89.40;;;;;;4100913;29;20043;-77
2023/12/13 07:36:48;;;;;;;3.47;1.05;;;8.90;89.30;;;;;;4100714;29;20286;-80
2023/12/13 07:38:51;;;;;;;4.63;0.82;;;9.00;89.30;;;;;;4100054;29;20082;-78
2023/12/13 07:40:52;;;;;;;6.20;1.02;;;9.00;89.20;;;;;;4100388;28;20629;-78
2023/12/13 07:42:54;;;;;;;4.80;1.02;;;9.00;89.20;;;;;;4100239;29;20063;-77
2023/12/13 07:44:56;;;;;;;2.05;0.63;;;9.00;89.10;;;;;;4100211;29;20055;-80
2023/12/13 07:46:57;;;;;;;3.45;0.90;;;9.10;89.00;;;;;;4099603;29;20616;-79
2023/12/13 07:49:03;;;;;;;5.30;2.30;;;9.10;88.80;;;;;;4099811;29;20043;-78
2023/12/13 07:51:06;;;;;;;9.88;4.60;;;9.10;88.70;;;;;;4091496;28;20044;-79
2023/12/13 07:53:08;;;;;;;10.93;5.10;;;9.10;88.90;;;;;;4084377;29;20051;-80
2023/12/13 07:55:11;;;;;;;12.00;4.68;;;9.10;89.10;;;;;;4084375;29;20052;-79
2023/12/13 07:57:12;;;;;;;13.00;6.15;;;9.20;88.90;;;;;;4084268;29;20075;-78
2023/12/13 07:59:14;;;;;;;6.13;2.40;;;9.20;88.80;;;;;;4099104;29;20125;-79
2023/12/13 08:01:16;;;;;;;6.05;1.73;;;9.20;88.80;;;;;;4099754;29;20063;-79
2023/12/13 08:03:17;;;;;;;5.88;1.25;;;9.20;88.80;;;;;;4099611;28;20054;-79
2023/12/13 08:05:20;;;;;;;3.60;0.88;;;9.20;88.80;;;;;;4099905;29;20059;-79
2023/12/13 08:07:22;;;;;;;3.75;1.10;;;9.20;88.70;;;;;;4100168;29;20055;-77
2023/12/13 08:09:23;;;;;;;3.92;1.02;;;9.20;88.90;;;;;;4097670;29;20141;-78
2023/12/13 08:11:26;;;;;;;2.85;0.98;;;9.20;89.10;;;;;;4099904;29;20531;-78
2023/12/13 08:13:28;;;;;;;2.78;1.00;;;9.10;90.10;;;;;;4099818;29;20078;-79
2023/12/13 08:15:30;;;;;;;5.47;1.13;;;9.00;90.20;;;;;;4099191;28;20055;-78
2023/12/13 08:17:33;;;;;;;5.88;1.20;;;9.00;90.30;;;;;;4099832;28;20054;-80
2023/12/13 08:19:35;;;;;;;6.25;1.30;;;8.90;90.30;;;;;;4099556;29;20513;-79
2023/12/13 08:21:40;;;;;;;3.78;1.20;;;9.00;90.40;;;;;;4098970;28;20603;-79
2023/12/13 08:23:42;;;;;;;2.25;0.90;;;9.10;90.10;;;;;;4099271;28;20052;-77
2023/12/13 08:25:44;;;;;;;3.35;1.20;;;9.10;90.10;;;;;;4099475;28;20477;-77
2023/12/13 08:27:47;;;;;;;4.57;1.10;;;9.10;90.40;;;;;;4099353;28;20059;-79
2023/12/13 08:29:48;;;;;;;4.13;1.20;;;9.00;90.70;;;;;;4099330;29;20055;-79
2023/12/13 08:31:50;;;;;;;4.68;1.30;;;9.00;90.60;;;;;;4099389;29;20051;-78
2023/12/13 08:33:52;;;;;;;4.60;1.30;;;9.00;90.80;;;;;;4099378;28;20055;-77
2023/12/13 08:35:54;;;;;;;4.25;1.20;;;9.00;90.80;;;;;;4099562;28;20863;-77
2023/12/13 08:37:56;;;;;;;5.70;1.13;;;9.00;91.00;;;;;;4099503;28;20054;-77
2023/12/13 08:39:58;;;;;;;4.20;1.00;;;9.00;91.10;;;;;;4099041;29;20118;-78
2023/12/13 08:41:59;;;;;;;3.97;1.30;;;9.00;91.00;;;;;;4099013;28;20047;-78
2023/12/13 08:44:02;;;;;;;4.22;1.27;;;9.00;90.90;;;;;;4099343;29;20054;-79
2023/12/13 08:46:04;;;;;;;3.95;1.17;;;9.00;90.80;;;;;;4098988;28;20113;-80
2023/12/13 08:48:06;;;;;;;3.35;1.45;;;9.00;90.90;;;;;;4099021;28;20058;-79
2023/12/13 08:50:08;;;;;;;5.85;1.70;;;9.00;91.20;;;;;;4098963;28;20043;-78
2023/12/13 08:52:10;;;;;;;3.90;1.33;;;8.90;91.50;;;;;;4099092;28;20054;-80
2023/12/13 08:54:12;;;;;;;6.65;1.55;;;8.90;91.60;;;;;;4099298;28;20054;-80
2023/12/13 08:56:14;;;;;;;41.85;22.48;;;8.90;91.50;;;;;;4099347;28;20142;-79
2023/12/13 08:58:15;;;;;;;51.35;27.73;;;8.90;91.70;;;;;;4099100;28;20564;-78
2023/12/13 09:00:19;;;;;;;33.83;17.40;;;8.90;91.60;;;;;;4099327;28;20051;-77
2023/12/13 09:02:20;;;;;;;10.98;5.07;;;9.00;91.50;;;;;;4098553;28;20059;-78
2023/12/13 09:04:22;;;;;;;17.15;7.45;;;9.00;91.20;;;;;;4098525;29;20079;-76
2023/12/13 09:06:23;;;;;;;9.85;3.33;;;9.10;91.30;;;;;;4099051;28;20504;-80
2023/12/13 09:08:25;;;;;;;6.85;1.80;;;9.10;91.40;;;;;;4097013;29;20102;-78
2023/12/13 09:10:26;;;;;;;5.70;1.60;;;9.10;91.30;;;;;;4098391;29;20062;-79
2023/12/13 09:12:28;;;;;;;3.67;1.30;;;9.10;91.30;;;;;;4098655;28;20047;-80
2023/12/13 09:14:30;;;;;;;6.00;1.30;;;9.10;91.20;;;;;;4098317;29;20054;-80
2023/12/13 09:16:33;;;;;;;4.90;1.33;;;9.10;91.40;;;;;;4098629;29;20051;-79
2023/12/13 09:18:35;;;;;;;5.57;1.20;;;9.20;91.40;;;;;;4098800;28;20087;-78
2023/12/13 09:20:36;;;;;;;4.38;1.10;;;9.20;91.40;;;;;;4098556;28;20346;-79
2023/12/13 09:22:38;;;;;;;4.30;1.25;;;9.20;91.40;;;;;;4098794;28;20114;-79
2023/12/13 09:24:40;;;;;;;4.90;1.35;;;9.30;91.40;;;;;;4098561;28;20051;-81
2023/12/13 09:26:42;;;;;;;4.75;1.75;;;9.30;91.30;;;;;;4098312;29;20070;-79
2023/12/13 09:28:44;;;;;;;7.65;1.60;;;9.30;91.30;;;;;;4098211;28;20110;-79
2023/12/13 09:30:46;;;;;;;4.85;1.30;;;9.30;91.40;;;;;;4098621;28;20456;-79
2023/12/13 09:32:50;;;;;;;4.20;1.38;;;9.20;91.70;;;;;;4098514;28;20137;-77
2023/12/13 09:34:51;;;;;;;5.20;1.40;;;9.20;92.20;;;;;;4098300;29;20477;-79
2023/12/13 09:36:54;;;;;;;2.97;1.00;;;9.30;92.20;;;;;;4098378;29;20043;-79
2023/12/13 09:38:56;;;;;;;5.78;1.25;;;9.30;92.20;;;;;;4098129;28;20055;-81
2023/12/13 09:40:57;;;;;;;4.90;1.27;;;9.30;92.10;;;;;;4098334;28;20134;-76
2023/12/13 09:43:00;;;;;;;4.47;1.42;;;9.40;91.90;;;;;;4098292;29;20151;-78
2023/12/13 09:45:06;;;;;;;3.67;1.13;;;9.30;91.80;;;;;;4098134;28;20090;-77
2023/12/13 09:47:08;;;;;;;;;;;9.40;91.60;;;;;;4098642;28;20191;-79
2023/12/13 09:49:11;;;;;;;4.25;1.40;;;9.30;91.30;;;;;;4098377;28;19973;-81
2023/12/13 09:51:14;;;;;;;5.20;1.40;;;9.40;91.70;;;;;;4098039;28;20552;-78
2023/12/13 09:53:17;;;;;;;5.88;1.58;;;9.30;92.30;;;;;;4098138;28;20055;-78
2023/12/13 09:55:20;;;;;;;3.63;1.38;;;9.40;92.30;;;;;;4097943;29;20078;-79
2023/12/13 09:57:22;;;;;;;5.82;1.55;;;9.40;92.10;;;;;;4098152;28;20508;-79
2023/12/13 09:59:25;;;;;;;4.28;1.50;;;9.50;92.10;;;;;;4097957;28;20060;-77
2023/12/13 10:01:27;;;;;;;4.03;1.58;;;9.40;92.00;;;;;;4097911;28;20059;-78
2023/12/13 10:03:32;;;;;;;3.95;1.83;;;9.50;92.00;;;;;;4097864;28;20055;-79
2023/12/13 10:05:40;;;;;;;5.40;2.10;;;9.50;92.10;;;;;;4098256;28;20055;-79
2023/12/13 10:07:41;;;;;;;8.35;2.60;;;9.40;92.40;;;;;;4098140;28;20051;-78
2023/12/13 10:09:43;;;;;;;8.48;3.30;;;9.30;92.40;;;;;;4095970;28;20047;-78
2023/12/13 10:11:45;;;;;;;7.85;3.45;;;9.30;92.60;;;;;;4098119;28;20389;-77
2023/12/13 10:13:47;;;;;;;8.45;3.70;;;9.30;92.40;;;;;;4098097;28;20162;-79
2023/12/13 10:15:49;;;;;;;10.93;4.10;;;9.20;92.70;;;;;;4097851;28;20051;-79
2023/12/13 10:17:51;;;;;;;6.88;3.60;;;9.10;92.80;;;;;;4098349;28;20126;-78
2023/12/13 10:19:52;;;;;;;8.23;3.75;;;8.90;93.00;;;;;;4097855;29;20047;-80
2023/12/13 10:21:56;;;;;;;10.18;3.97;;;8.80;93.20;;;;;;4098146;29;20118;-78
2023/12/13 10:23:59;;;;;;;7.78;3.97;;;8.80;93.50;;;;;;4097928;29;20386;-77
2023/12/13 10:26:02;;;;;;;8.30;3.92;;;8.80;93.60;;;;;;4097824;28;20452;-78
2023/12/13 10:28:04;;;;;;;7.50;3.90;;;8.80;93.80;;;;;;4097848;29;20082;-79
2023/12/13 10:30:10;;;;;;;10.68;4.10;;;8.80;94.00;;;;;;4098108;28;20449;-79
2023/12/13 10:32:13;;;;;;;8.77;4.85;;;8.80;94.00;;;;;;4099020;28;20059;-79
2023/12/13 10:34:15;;;;;;;11.25;4.82;;;8.90;93.90;;;;;;4098339;29;20528;-79
2023/12/13 10:36:18;;;;;;;8.93;3.58;;;8.90;93.80;;;;;;4097816;28;20142;-78
2023/12/13 10:38:24;;;;;;;10.68;3.47;;;9.00;93.20;;;;;;4097512;28;20154;-80
2023/12/13 10:40:26;;;;;;;6.88;2.70;;;9.00;93.00;;;;;;4097954;28;20091;-80
2023/12/13 10:42:29;;;;;;;4.40;2.33;;;9.10;92.40;;;;;;4097916;28;20476;-79
2023/12/13 10:44:32;;;;;;;5.15;2.22;;;9.20;92.30;;;;;;4097707;28;20051;-81
2023/12/13 10:46:36;;;;;;;6.38;2.50;;;9.30;92.30;;;;;;4100552;28;20059;-79
2023/12/13 10:48:39;;;;;;;6.25;2.60;;;9.40;91.80;;;;;;4100825;28;20081;-78
2023/12/13 10:50:40;;;;;;;5.97;2.42;;;9.40;92.00;;;;;;4100862;29;20114;-78
2023/12/13 10:52:43;;;;;;;6.47;2.50;;;9.40;92.10;;;;;;4100694;28;20106;-78
2023/12/13 10:54:48;;;;;;;5.13;2.00;;;9.50;92.00;;;;;;4100871;28;20404;-78
2023/12/13 10:56:50;;;;;;;5.93;1.98;;;9.50;91.50;;;;;;4100941;29;20576;-78
2023/12/13 10:58:53;;;;;;;4.75;1.88;;;9.50;91.00;;;;;;4100532;28;20054;-78
2023/12/13 11:00:57;;;;;;;5.35;1.63;;;9.60;91.40;;;;;;4100430;28;20146;-79
2023/12/13 11:03:03;;;;;;;4.35;1.58;;;9.60;90.90;;;;;;4100374;29;20062;-79
2023/12/13 11:05:06;;;;;;;3.90;1.40;;;9.60;90.90;;;;;;4100266;28;20067;-79
2023/12/13 11:07:08;;;;;;;3.80;1.10;;;9.60;90.90;;;;;;4100357;28;20059;-79
2023/12/13 11:09:14;;;;;;;2.83;0.90;;;9.50;90.40;;;;;;4098356;29;20059;-79
2023/12/13 11:11:18;;;;;;;;;;;9.50;90.30;;;;;;4101104;29;20058;-79
2023/12/13 11:13:22;;;;;;;7.43;3.25;;;9.50;90.40;;;;;;4100536;28;19926;-78
2023/12/13 11:15:24;;;;;;;5.05;2.60;;;9.50;90.30;;;;;;4099983;28;20141;-78
2023/12/13 11:17:25;;;;;;;4.18;1.40;;;9.60;90.20;;;;;;4100436;29;20708;-79
2023/12/13 11:19:29;;;;;;;3.53;1.20;;;9.70;90.00;;;;;;4100283;29;20113;-79
2023/12/13 11:21:32;;;;;;;2.63;0.63;;;9.70;88.30;;;;;;4100386;29;20057;-78
2023/12/13 11:23:35;;;;;;;2.42;0.80;;;9.70;88.00;;;;;;4100413;28;20494;-79
2023/12/13 11:25:38;;;;;;;2.97;0.70;;;9.80;88.40;;;;;;4100063;29;20121;-79
2023/12/13 11:27:52;;;;;;;2.22;0.65;;;9.90;87.90;;;;;;4100471;28;20556;-80
2023/12/13 11:29:53;;;;;;;3.05;0.75;;;10.00;87.70;;;;;;4100698;28;20058;-79
2023/12/13 11:31:58;;;;;;;2.17;0.63;;;10.00;87.40;;;;;;4100758;28;20444;-79
2023/12/13 11:33:59;;;;;;;2.35;0.60;;;10.10;86.20;;;;;;4100083;28;20063;-79
2023/12/13 11:36:01;;;;;;;1.70;0.55;;;10.00;85.20;;;;;;4100855;28;20090;-78
2023/12/13 11:38:03;;;;;;;1.90;0.40;;;10.00;86.10;;;;;;4100129;29;20063;-78
2023/12/13 11:40:07;;;;;;;1.27;0.40;;;10.00;85.30;;;;;;4099908;29;20055;-79
2023/12/13 11:42:12;;;;;;;6.78;3.10;;;9.90;86.00;;;;;;4100224;28;20051;-77
2023/12/13 11:44:15;;;;;;;31.98;18.33;;;9.90;84.90;;;;;;4100176;28;20054;-78
2023/12/13 11:46:17;;;;;;;4.35;1.90;;;9.90;85.00;;;;;;4099879;28;20059;-79
2023/12/13 11:48:19;;;;;;;3.03;0.90;;;9.90;85.50;;;;;;4100025;28;20055;-79
2023/12/13 11:50:22;;;;;;;2.08;0.50;;;9.90;84.80;;;;;;4099801;28;20074;-78
2023/12/13 11:52:24;;;;;;;2.17;0.65;;;9.90;84.90;;;;;;4100138;29;20063;-78
2023/12/13 11:54:26;;;;;;;1.00;0.50;;;9.90;85.00;;;;;;4100076;28;20232;-78
2023/12/13 11:56:27;;;;;;;2.03;0.50;;;10.00;84.60;;;;;;4098995;28;20059;-80
2023/12/13 11:58:30;;;;;;;2.13;0.57;;;9.90;84.70;;;;;;4099276;29;20126;-80
2023/12/13 12:00:33;;;;;;;1.88;0.50;;;9.90;84.50;;;;;;4099755;28;20062;-79
2023/12/13 12:02:35;;;;;;;4.40;0.80;;;9.90;84.50;;;;;;4099844;28;20485;-79
2023/12/13 12:04:36;;;;;;;1.23;0.50;;;9.90;84.80;;;;;;4099732;28;20055;-78
2023/12/13 12:06:47;;;;;;;4.93;2.38;;;9.90;84.90;;;;;;4099977;29;20138;-78
2023/12/13 12:08:50;;;;;;;2.97;1.20;;;9.90;85.00;;;;;;4097956;28;20059;-78
2023/12/13 12:10:52;;;;;;;2.92;0.60;;;10.00;84.00;;;;;;4099780;29;20055;-79
2023/12/13 12:12:54;;;;;;;3.72;0.80;;;10.00;83.50;;;;;;4099501;28;20146;-79
2023/12/13 12:14:56;;;;;;;1.17;0.50;;;10.10;83.70;;;;;;4099327;28;20484;-78
2023/12/13 12:17:01;;;;;;;1.30;0.47;;;10.10;83.60;;;;;;4099512;28;20113;-78
2023/12/13 12:19:04;;;;;;;1.42;0.50;;;10.10;83.40;;;;;;4099634;28;20059;-78
2023/12/13 12:21:08;;;;;;;2.38;0.60;;;10.30;83.40;;;;;;4099470;29;20571;-79
2023/12/13 12:23:11;;;;;;;2.95;0.55;;;10.40;82.80;;;;;;4099733;28;20073;-78
2023/12/13 12:25:13;;;;;;;3.03;0.57;;;10.60;81.80;;;;;;4099372;28;20062;-78
2023/12/13 12:27:15;;;;;;;2.90;0.80;;;10.80;81.60;;;;;;4099057;28;20532;-79
2023/12/13 12:29:17;;;;;;;3.03;0.77;;;10.90;80.50;;;;;;4100019;29;20465;-78
2023/12/13 12:31:19;;;;;;;2.15;0.70;;;11.10;80.90;;;;;;4100458;29;20055;-78
2023/12/13 12:33:22;;;;;;;4.57;0.73;;;11.30;79.70;;;;;;4099788;29;20516;-79
2023/12/13 12:35:23;;;;;;;2.38;0.90;;;11.50;79.70;;;;;;4099353;29;20138;-79
2023/12/13 12:37:25;;;;;;;1.70;0.60;;;11.70;77.80;;;;;;4099538;29;20055;-78
2023/12/13 12:39:26;;;;;;;2.55;0.70;;;11.90;77.20;;;;;;4099335;28;20479;-79
2023/12/13 12:41:33;;;;;;;2.35;0.73;;;11.90;76.70;;;;;;4099854;28;20086;-79
2023/12/13 12:43:37;;;;;;;3.00;1.25;;;11.90;77.20;;;;;;4100113;28;20492;-79
2023/12/13 12:45:38;;;;;;;4.63;1.13;;;12.10;77.00;;;;;;4099977;29;20102;-79
2023/12/13 12:47:40;;;;;;;3.75;0.80;;;12.50;75.70;;;;;;4099249;29;20449;-79
2023/12/13 12:49:44;;;;;;;10.63;6.07;;;12.90;73.60;;;;;;4099175;29;20067;-78
2023/12/13 12:51:46;;;;;;;4.47;2.15;;;13.30;71.70;;;;;;4098698;28;20286;-80
2023/12/13 12:53:48;;;;;;;2.80;1.10;;;13.10;71.90;;;;;;4099102;28;20504;-78
2023/12/13 12:55:50;;;;;;;2.75;0.80;;;13.30;71.20;;;;;;4098917;29;20055;-79
2023/12/13 12:57:52;;;;;;;1.35;0.68;;;13.50;69.70;;;;;;4099312;28;20055;-78
2023/12/13 12:59:53;;;;;;;3.38;0.80;;;13.60;69.70;;;;;;4099036;29;20552;-79
2023/12/13 13:01:55;;;;;;;4.28;0.80;;;13.50;69.20;;;;;;4098580;29;20055;-80
2023/12/13 13:03:57;;;;;;;1.55;0.65;;;13.20;70.00;;;;;;4098554;29;20118;-78
2023/12/13 13:06:02;;;;;;;2.00;0.70;;;12.90;71.00;;;;;;4098861;28;20051;-78
2023/12/13 13:08:03;;;;;;;2.30;0.70;;;12.70;72.30;;;;;;4099294;28;20489;-78
2023/12/13 13:10:09;;;;;;;2.95;0.80;;;12.50;73.30;;;;;;4097109;28;20044;-81
2023/12/13 13:12:10;;;;;;;3.53;0.80;;;12.20;73.60;;;;;;4099376;28;20087;-78
2023/12/13 13:14:12;;;;;;;2.35;0.80;;;11.90;74.70;;;;;;4098730;29;20054;-80
2023/12/13 13:16:14;;;;;;;2.70;0.90;;;11.80;75.60;;;;;;4099348;29;20449;-78
2023/12/13 13:18:16;;;;;;;2.55;0.82;;;11.70;76.10;;;;;;4099081;28;20135;-78
2023/12/13 13:20:18;;;;;;;4.32;0.90;;;11.60;76.30;;;;;;4099266;29;20544;-80
2023/12/13 13:22:21;;;;;;;3.25;0.85;;;11.60;76.40;;;;;;4099097;29;20055;-79
2023/12/13 13:24:23;;;;;;;2.13;0.70;;;11.70;76.50;;;;;;4098899;29;20110;-79
2023/12/13 13:26:25;;;;;;;3.28;1.00;;;12.00;75.30;;;;;;4098955;29;20224;-80
2023/12/13 13:28:26;;;;;;;2.33;0.80;;;11.90;75.30;;;;;;4098917;28;20126;-82
2023/12/13 13:30:28;;;;;;;3.78;0.88;;;11.70;76.10;;;;;;4098786;28;20070;-79
2023/12/13 13:32:29;;;;;;;1.92;0.68;;;11.70;76.20;;;;;;4099264;28;20051;-81
2023/12/13 13:34:31;;;;;;;18.05;9.63;;;11.50;76.80;;;;;;4099494;29;20062;-81
2023/12/13 13:36:33;;;;;;;11.90;6.13;;;11.50;77.00;;;;;;4099572;29;20102;-80
2023/12/13 13:38:35;;;;;;;15.00;7.30;;;11.50;77.50;;;;;;4098819;29;20453;-82
2023/12/13 13:40:37;;;;;;;5.18;2.35;;;11.40;77.30;;;;;;4098578;28;20099;-79
2023/12/13 13:42:39;;;;;;;4.43;1.40;;;11.40;77.60;;;;;;4098418;28;20059;-79
2023/12/13 13:44:40;;;;;;;4.18;1.02;;;11.40;77.50;;;;;;4098413;28;20110;-82
2023/12/13 13:46:43;;;;;;;2.20;0.90;;;11.40;76.90;;;;;;4098411;28;20058;-83
2023/12/13 13:48:45;;;;;;;2.45;0.90;;;11.40;77.20;;;;;;4098428;28;20085;-80
2023/12/13 13:50:47;;;;;;;1.98;0.80;;;11.40;76.80;;;;;;4098204;28;20051;-80
2023/12/13 13:52:49;;;;;;;3.75;1.00;;;11.70;76.60;;;;;;4098542;28;20059;-80
2023/12/13 13:54:52;;;;;;;2.03;0.70;;;11.90;74.90;;;;;;4100167;28;20058;-79
2023/12/13 13:56:54;;;;;;;3.13;0.80;;;11.90;74.80;;;;;;4098267;28;20055;-81
2023/12/13 13:58:56;;;;;;;3.45;1.00;;;11.80;74.70;;;;;;4098169;28;20043;-81
2023/12/13 14:00:58;;;;;;;3.15;0.98;;;11.70;74.80;;;;;;4098389;28;20062;-80
2023/12/13 14:03:00;;;;;;;2.65;0.90;;;11.70;75.40;;;;;;4097789;28;20122;-78
2023/12/13 14:05:03;;;;;;;3.40;1.08;;;11.70;74.80;;;;;;4098209;28;20106;-78
2023/12/13 14:07:05;;;;;;;31.00;18.05;;;11.60;75.20;;;;;;4098102;29;20059;-80
2023/12/13 14:09:07;;;;;;;15.95;8.38;;;11.60;75.70;;;;;;4096014;28;20047;-78
2023/12/13 14:11:11;;;;;;;9.68;5.20;;;11.60;75.90;;;;;;4098176;28;20084;-80
2023/12/13 14:13:12;;;;;;;8.27;4.00;;;11.60;76.10;;;;;;4098618;28;20055;-78
2023/12/13 14:15:15;;;;;;;6.10;2.13;;;11.50;76.30;;;;;;4097776;28;20098;-78
2023/12/13 14:17:17;;;;;;;4.13;1.23;;;11.50;76.50;;;;;;4098448;28;20110;-78
2023/12/13 14:19:19;;;;;;;3.63;0.90;;;11.40;76.40;;;;;;4098020;28;20059;-79
2023/12/13 14:21:20;;;;;;;2.78;0.90;;;11.30;76.80;;;;;;4100839;28;20055;-81
2023/12/13 14:23:22;;;;;;;1.98;0.73;;;11.20;77.60;;;;;;4101302;28;20051;-78
2023/12/13 14:25:24;;;;;;;5.00;2.22;;;11.20;78.00;;;;;;4101169;28;20532;-80
2023/12/13 14:27:27;;;;;;;3.33;1.17;;;11.20;78.40;;;;;;4100517;29;20051;-79
2023/12/13 14:29:29;;;;;;;3.42;1.20;;;11.20;78.50;;;;;;4102154;28;20473;-78
2023/12/13 14:31:31;;;;;;;3.67;1.20;;;11.20;78.30;;;;;;4102374;28;20055;-79
2023/12/13 14:33:32;;;;;;;2.55;0.82;;;11.10;78.20;;;;;;4102893;28;20102;-81
2023/12/13 14:35:34;;;;;;;3.05;0.80;;;11.00;78.20;;;;;;4104268;28;20106;-80
2023/12/13 14:37:42;;;;;;;2.92;1.10;;;11.00;78.40;;;;;;4105288;28;20142;-80
2023/12/13 14:39:44;;;;;;;3.90;1.02;;;10.90;78.70;;;;;;4103839;29;20438;-79
2023/12/13 14:41:46;;;;;;;4.10;0.80;;;10.40;82.10;;;;;;4103312;29;20109;-78
2023/12/13 14:43:49;;;;;;;2.45;0.77;;;9.90;83.60;;;;;;4103699;28;20047;-78
2023/12/13 14:45:50;;;;;;;2.00;0.80;;;9.50;85.90;;;;;;4103350;28;20401;-79
2023/12/13 14:47:52;;;;;;;2.88;0.65;;;9.30;87.40;;;;;;4103049;29;20109;-78
2023/12/13 14:49:54;;;;;;;2.33;0.50;;;9.00;87.40;;;;;;4103146;29;20051;-78
2023/12/13 14:51:56;;;;;;;2.47;0.70;;;9.10;86.60;;;;;;4103255;28;20458;-79
2023/12/13 14:53:58;;;;;;;2.03;0.40;;;9.20;86.80;;;;;;4102902;28;20358;-79
2023/12/13 14:56:00;;;;;;;2.45;0.75;;;9.30;85.60;;;;;;4103028;28;20098;-79
2023/12/13 14:58:02;;;;;;;2.88;0.80;;;9.20;84.60;;;;;;4107576;28;20170;-77
2023/12/13 15:00:10;;;;;;;2.75;0.60;;;9.00;85.10;;;;;;4103099;28;20098;-79
2023/12/13 15:02:12;;;;;;;1.90;0.68;;;9.00;86.00;;;;;;4102668;28;20059;-77
2023/12/13 15:04:15;;;;;;;3.40;0.88;;;9.00;85.50;;;;;;4103193;28;20103;-78
2023/12/13 15:06:17;;;;;;;3.92;1.08;;;9.00;85.20;;;;;;4102657;29;20051;-78
2023/12/13 15:08:19;;;;;;;2.55;0.63;;;8.90;85.40;;;;;;4102835;28;20051;-78
2023/12/13 15:10:21;;;;;;;1.67;0.60;;;8.90;86.10;;;;;;4102632;29;20055;-79
2023/12/13 15:12:23;;;;;;;2.42;0.57;;;8.80;86.50;;;;;;4104893;28;20050;-82
2023/12/13 15:14:25;;;;;;;3.33;0.60;;;8.80;87.10;;;;;;4102420;28;20051;-80
2023/12/13 15:16:28;;;;;;;2.00;0.70;;;8.80;86.90;;;;;;4102716;29;20548;-80
2023/12/13 15:18:32;;;;;;;3.20;0.73;;;8.90;87.60;;;;;;4102670;29;20102;-80
2023/12/13 15:20:34;;;;;;;2.13;0.63;;;9.00;87.20;;;;;;4102679;29;20121;-78
2023/12/13 15:22:36;;;;;;;3.05;0.65;;;9.10;87.30;;;;;;4101029;28;20062;-79
2023/12/13 15:24:42;;;;;;;1.83;0.80;;;9.10;87.50;;;;;;4101589;28;20093;-79
2023/12/13 15:26:44;;;;;;;;;;;9.10;87.90;;;;;;4095004;28;20114;-80
2023/12/13 15:28:46;;;;;;;1.75;0.60;;;9.10;88.50;;;;;;4098968;28;19926;-78
2023/12/13 15:30:47;;;;;;;1.80;0.60;;;9.10;88.90;;;;;;4088955;28;20107;-78
2023/12/13 15:32:51;;;;;;;1.88;0.60;;;9.10;89.10;;;;;;4099433;28;20055;-78
2023/12/13 15:34:52;;;;;;;2.70;0.70;;;9.10;89.90;;;;;;4099544;28;20275;-78
2023/12/13 15:36:54;;;;;;;7.25;0.80;;;9.10;90.00;;;;;;4099722;28;20110;-78
2023/12/13 15:38:56;;;;;;;2.30;0.60;;;9.10;89.90;;;;;;4100288;29;20129;-79
2023/12/13 15:40:58;;;;;;;3.00;0.90;;;9.10;90.00;;;;;;4100218;28;20054;-79
2023/12/13 15:42:58;;;;;;;4.18;1.10;;;9.10;89.90;;;;;;4100154;28;20493;-79
2023/12/13 15:45:00;;;;;;;1.55;0.65;;;9.10;89.80;;;;;;4099845;28;20106;-79
2023/12/13 15:47:03;;;;;;;3.28;0.60;;;9.10;89.90;;;;;;4099662;28;20098;-79
2023/12/13 15:49:05;;;;;;;3.50;0.80;;;9.10;89.40;;;;;;4099954;28;20102;-80
2023/12/13 15:51:07;;;;;;;2.28;0.80;;;9.10;89.60;;;;;;4099447;28;20394;-79
2023/12/13 15:53:09;;;;;;;2.88;0.80;;;9.10;89.90;;;;;;4100055;28;20051;-80
2023/12/13 15:55:11;;;;;;;2.33;0.80;;;9.00;90.00;;;;;;4099569;29;20473;-78
2023/12/13 15:57:13;;;;;;;2.05;0.70;;;9.00;90.10;;;;;;4099822;28;20133;-79
2023/12/13 15:59:15;;;;;;;2.92;0.75;;;9.00;90.20;;;;;;4099312;28;20118;-79
2023/12/13 16:01:17;;;;;;;2.70;0.88;;;9.00;90.30;;;;;;4099168;28;20067;-81
2023/12/13 16:03:19;;;;;;;3.65;1.35;;;9.00;90.30;;;;;;4097383;28;20139;-79
2023/12/13 16:05:22;;;;;;;4.05;1.58;;;9.00;90.30;;;;;;4099620;28;20051;-80
2023/12/13 16:07:24;;;;;;;3.67;1.65;;;9.00;90.40;;;;;;4103419;28;20102;-79
2023/12/13 16:09:26;;;;;;;5.57;1.95;;;9.00;90.20;;;;;;4115788;28;20046;-81
2023/12/13 16:11:28;;;;;;;4.60;1.98;;;8.90;90.10;;;;;;4115138;28;20390;-79
2023/12/13 16:13:31;;;;;;;3.15;1.52;;;8.90;90.20;;;;;;4099788;28;20054;-83
2023/12/13 16:15:33;;;;;;;4.28;1.60;;;8.90;90.10;;;;;;4100250;28;20471;-81
2023/12/13 16:17:35;;;;;;;7.65;3.80;;;8.90;90.00;;;;;;4099835;28;20055;-80
2023/12/13 16:19:36;;;;;;;33.25;17.77;;;8.90;90.10;;;;;;4099678;28;20512;-80
2023/12/13 16:21:42;;;;;;;13.68;6.50;;;8.80;90.20;;;;;;4100748;29;20055;-81
2023/12/13 16:23:44;;;;;;;10.35;4.97;;;8.90;90.20;;;;;;4099240;28;20073;-80
2023/12/13 16:25:46;;;;;;;14.05;7.20;;;8.90;90.10;;;;;;4099564;28;20059;-81
2023/12/13 16:27:48;;;;;;;6.18;3.15;;;8.90;90.00;;;;;;4100441;28;20059;-81
2023/12/13 16:29:50;;;;;;;5.43;2.60;;;8.80;90.00;;;;;;4099727;28;20390;-81
2023/12/13 16:31:52;;;;;;;15.63;8.32;;;8.80;90.00;;;;;;4099640;28;20117;-81
2023/12/13 16:33:55;;;;;;;13.85;6.88;;;8.80;89.90;;;;;;4099846;28;20055;-80
2023/12/13 16:35:57;;;;;;;11.23;5.50;;;8.80;90.00;;;;;;4099477;28;20054;-81
2023/12/13 16:38:00;;;;;;;7.35;3.92;;;8.80;90.00;;;;;;4099401;28;20059;-79
2023/12/13 16:40:02;;;;;;;6.18;2.30;;;8.80;90.10;;;;;;4098718;28;20098;-80
2023/12/13 16:42:05;;;;;;;4.47;2.28;;;8.90;90.10;;;;;;4100140;28;20441;-81